Terminal Aerodrome Forecast
Issued by NWS

Home | Current Version | Previous Version | Text Only | Print | Product List | Glossary On
Versions: 1 2 3 4 5 6 7 8 9 10 11 12 13 14 15
000
FTUS45 KFGZ 101800 AAA
TAFPRC
TAF AMD
KPRC 101827Z 1018/1118 16008KT P6SM VCTS SCT040CB BKN080
      TEMPO 1019/1023 5SM TSRA BKN040CB
     FM110000 20006KT P6SM SCT060 BKN150
     FM110800 VRB03KT P6SM BKN200=

USA.gov is the U.S. government's official web portal to all federal, state and local government web resources and services.